Hauptseite
METAR-TAF:

METAR-TAF

Flughäfen :

Magdeburg, Deutschland

Flughafen Magdeburg-Cochstedt

Breite: 51-51-18N, Länge: 11-25-08E, Höhe: 180 m

METAR: fehlend

Zeit: 16:51 (14:51 UTC)

Prognose

Neuester Wetterbericht von vor 21 Stunden und 51 Minuten, um 17:00 UTC
Gültige Prognose vom 19 um 18 UTC bis 20 um 03 UTC
Wind 5 kt aus West
Sichtweite 10 km oder mehr
Leicht bewölkt in der Höhe von 3500 ft

TAF: EDBC 191700Z 1918/2003 28005KT 9999 FEW035

Wetterbeobachtungen und Prognosen von mehr als 4000 Flughäfen (METAR und TAF Bericht).

Die verfügbaren Stationen werden durch gelbe und rote Markierungen auf der Karte dargestellt.

Führen Sie die Maus auf sie, um den Namen der Station zu sehen.

Darauf klicken, um die Beobachtung von Wetterbeobachtungen und Prognosen zu sehen.

Um die Karte zu ändern : klicken Sie auf den grünen Tasten mit einem schwarzen Kreuz Zum Vergrößern, auf den grünen Button mit einem Gedankenstrich zu verkleinern, oder auf die grünen Pfeile für benachbarte Karten.


METAR-TAF: